Terminal Aerodrome Forecast
Issued by NWS Pittsburgh, PA

Current Version | Previous Version | Text Only | Print | Product List | Glossary Off
Versions: 1 2 3 4 5 6 7 8 9 10 11 12 13 14 15 16 17 18 19 20 21 22 23 24 25 26 27

316
FTUS41 KPBZ 220522
TAFPIT
TAF
KPIT 220522Z 2206/2312 17007KT P6SM BKN070
     FM220900 20006KT P6SM VCSH OVC025
      TEMPO 2209/2212 5SM -SHRA BKN015
     FM221300 32008KT P6SM BKN025
     FM221400 28008KT P6SM SCT040=

USA.gov is the U.S. government's official web portal to all federal, state and local government web resources and services.